createdAt,value
2024-01-16T00:00:04.052Z,78.89
2024-01-16T00:01:04.186Z,79.38
2024-01-16T00:02:04.204Z,78.04
2024-01-16T00:03:04.201Z,79.35
2024-01-16T00:04:04.287Z,79.48
2024-01-16T00:05:04.395Z,79.78
2024-01-16T00:06:04.327Z,78.19
2024-01-16T00:07:04.488Z,76.04
2024-01-16T00:08:04.432Z,79.52
2024-01-16T00:09:04.482Z,77.64
2024-01-16T00:10:04.519Z,79.32
2024-01-16T00:11:04.712Z,78.13
2024-01-16T00:12:04.579Z,77.09
2024-01-16T00:13:04.624Z,77.27
2024-01-16T00:14:04.712Z,78.09
2024-01-16T00:15:04.706Z,75.28
2024-01-16T00:16:04.709Z,77.63
2024-01-16T00:17:04.771Z,77.21
2024-01-16T00:18:04.900Z,75.43
2024-01-16T00:19:04.937Z,77.61
2024-01-16T00:20:04.866Z,76.86
2024-01-16T00:21:04.887Z,77.76
2024-01-16T00:22:04.933Z,77.21
2024-01-16T00:23:04.982Z,77.37
2024-01-16T00:24:05.030Z,76.79
2024-01-16T00:25:05.889Z,77.36
2024-01-16T00:26:05.161Z,76.02
2024-01-16T00:27:07.421Z,75.19
2024-01-16T00:28:05.137Z,77.73
2024-01-16T00:29:05.197Z,75.62
2024-01-16T00:30:05.161Z,75.16
2024-01-16T00:31:05.152Z,75.41
2024-01-16T00:32:05.201Z,75.78
2024-01-16T00:33:05.308Z,76.51
2024-01-16T00:34:05.241Z,74.47
2024-01-16T00:35:05.206Z,75.26
2024-01-16T00:36:05.160Z,74.28
2024-01-16T00:37:05.159Z,73.33
2024-01-16T00:38:05.176Z,74.43
2024-01-16T00:39:05.714Z,73.94
2024-01-16T00:40:05.170Z,74.40
2024-01-16T00:41:05.223Z,72.06
2024-01-16T00:42:05.168Z,73.56
2024-01-16T00:43:05.187Z,73.60
2024-01-16T00:44:05.214Z,73.74
2024-01-16T00:45:05.186Z,73.27
2024-01-16T00:46:05.189Z,72.81
2024-01-16T00:47:05.223Z,73.72
2024-01-16T00:48:05.336Z,72.93
2024-01-16T00:49:05.282Z,73.06
2024-01-16T00:50:05.246Z,72.31
2024-01-16T00:51:05.189Z,73.25
2024-01-16T00:52:05.211Z,70.38
2024-01-16T00:53:05.216Z,72.73
2024-01-16T00:54:05.198Z,70.83
2024-01-16T00:55:05.197Z,71.85
2024-01-16T00:56:05.237Z,70.59
2024-01-16T00:57:05.197Z,70.88
2024-01-16T00:58:05.209Z,71.69
2024-01-16T00:59:05.223Z,71.37
2024-01-16T01:00:05.222Z,70.18
2024-01-16T01:01:05.259Z,71.28
2024-01-16T01:02:05.282Z,69.93
2024-01-16T01:03:05.210Z,68.42
2024-01-16T01:04:05.288Z,70.92
2024-01-16T01:05:05.277Z,71.41
2024-01-16T01:06:05.297Z,68.91
2024-01-16T01:07:05.228Z,70.43
2024-01-16T01:08:05.263Z,70.70
2024-01-16T01:09:05.221Z,70.22
2024-01-16T01:10:05.250Z,69.89
2024-01-16T01:11:05.258Z,70.86
2024-01-16T01:12:05.248Z,69.06
2024-01-16T01:13:05.238Z,68.15
2024-01-16T01:14:05.366Z,68.47
2024-01-16T01:15:05.324Z,69.43
2024-01-16T01:16:05.248Z,67.59
2024-01-16T01:17:05.305Z,70.04
2024-01-16T01:18:05.735Z,67.67
2024-01-16T01:19:05.358Z,67.40
2024-01-16T01:20:05.309Z,67.75
2024-01-16T01:21:05.276Z,67.11
2024-01-16T01:22:05.313Z,67.39
2024-01-16T01:23:05.416Z,68.75
2024-01-16T01:24:05.379Z,65.59
2024-01-16T01:25:05.367Z,66.65
2024-01-16T01:26:05.434Z,67.44
2024-01-16T01:27:05.421Z,65.98
2024-01-16T01:28:05.435Z,67.53
2024-01-16T01:29:05.507Z,68.53
2024-01-16T01:30:05.575Z,65.62
2024-01-16T01:31:05.589Z,64.95
2024-01-16T01:32:05.606Z,66.80
2024-01-16T01:33:05.707Z,64.84
2024-01-16T01:34:05.744Z,67.38
2024-01-16T01:35:05.731Z,66.02
2024-01-16T01:36:09.464Z,66.19
2024-01-16T01:37:05.728Z,68.60
2024-01-16T01:38:05.770Z,66.12
2024-01-16T01:39:05.743Z,64.62
2024-01-16T01:40:05.750Z,65.88
2024-01-16T01:41:08.568Z,65.92
2024-01-16T01:42:05.722Z,65.97
2024-01-16T01:43:05.737Z,65.93
2024-01-16T01:44:05.793Z,64.09
2024-01-16T01:45:05.750Z,65.02
2024-01-16T01:46:05.746Z,65.57
2024-01-16T01:47:05.805Z,64.44
2024-01-16T01:48:05.873Z,65.56
2024-01-16T01:49:05.810Z,65.33
2024-01-16T01:50:05.777Z,64.88
2024-01-16T01:51:05.761Z,65.27
2024-01-16T01:52:05.757Z,65.02
2024-01-16T01:53:05.772Z,62.50
2024-01-16T01:54:05.793Z,63.78
2024-01-16T01:55:05.757Z,62.04
2024-01-16T01:56:05.792Z,63.73
2024-01-16T01:57:05.758Z,64.37
2024-01-16T01:58:05.775Z,64.71
2024-01-16T01:59:05.777Z,61.39
2024-01-16T02:00:05.770Z,62.72
2024-01-16T02:01:05.813Z,62.20
2024-01-16T02:02:05.816Z,62.83
2024-01-16T02:03:05.779Z,62.10
2024-01-16T02:04:05.775Z,62.27
2024-01-16T02:05:05.852Z,63.59
2024-01-16T02:06:05.927Z,61.30
2024-01-16T02:07:05.768Z,61.49
2024-01-16T02:08:05.789Z,61.37
2024-01-16T02:09:05.791Z,61.75
2024-01-16T02:10:06.448Z,59.74
2024-01-16T02:11:05.791Z,59.67
2024-01-16T02:12:05.784Z,60.06
2024-01-16T02:13:05.775Z,61.04
2024-01-16T02:14:05.807Z,61.78
2024-01-16T02:15:05.809Z,61.08
2024-01-16T02:16:05.784Z,61.69
2024-01-16T02:17:05.836Z,61.27
2024-01-16T02:18:05.906Z,61.24
2024-01-16T02:19:11.844Z,59.89
2024-01-16T02:20:05.853Z,60.00
2024-01-16T02:21:05.793Z,60.29
2024-01-16T02:22:05.819Z,60.05
2024-01-16T02:23:05.866Z,60.89
2024-01-16T02:24:05.788Z,61.37
2024-01-16T02:25:05.790Z,60.84
2024-01-16T02:26:05.838Z,58.80
2024-01-16T02:27:05.808Z,60.36
2024-01-16T02:28:05.790Z,60.83
2024-01-16T02:29:05.857Z,61.46
2024-01-16T02:30:05.818Z,61.53
2024-01-16T02:31:05.831Z,60.20
2024-01-16T02:32:05.857Z,60.78
2024-01-16T02:33:05.952Z,60.91
2024-01-16T02:34:05.977Z,60.99
2024-01-16T02:35:05.860Z,61.51
2024-01-16T02:36:05.804Z,61.02
2024-01-16T02:37:05.807Z,62.12
2024-01-16T02:38:05.824Z,60.42
2024-01-16T02:39:05.815Z,60.54
2024-01-16T02:40:05.832Z,61.26
2024-01-16T02:41:05.865Z,59.02
2024-01-16T02:42:05.822Z,59.29
2024-01-16T02:43:05.821Z,60.06
2024-01-16T02:44:05.841Z,61.12
2024-01-16T02:45:05.822Z,61.77
2024-01-16T02:46:05.841Z,59.58
2024-01-16T02:47:05.890Z,62.07
2024-01-16T02:48:05.918Z,61.53
2024-01-16T02:49:05.845Z,60.37
2024-01-16T02:50:05.958Z,61.54
2024-01-16T02:51:05.843Z,61.50
2024-01-16T02:52:05.850Z,59.23
2024-01-16T02:53:05.908Z,59.65
2024-01-16T02:54:05.876Z,59.15
2024-01-16T02:55:05.844Z,61.28
2024-01-16T02:56:05.916Z,60.13
2024-01-16T02:57:05.915Z,57.98
2024-01-16T02:58:05.857Z,60.39
2024-01-16T02:59:11.906Z,61.12
2024-01-16T03:00:05.891Z,61.17
2024-01-16T03:01:05.931Z,61.45
2024-01-16T03:02:05.908Z,61.63
2024-01-16T03:03:05.918Z,60.92
2024-01-16T03:04:05.871Z,60.12
2024-01-16T03:05:05.948Z,61.31
2024-01-16T03:06:06.006Z,61.57
2024-01-16T03:07:05.901Z,60.50
2024-01-16T03:08:05.912Z,59.56
2024-01-16T03:09:05.882Z,62.74
2024-01-16T03:10:05.885Z,60.87
2024-01-16T03:11:05.920Z,59.66
2024-01-16T03:12:05.897Z,59.68
2024-01-16T03:13:05.881Z,60.85
2024-01-16T03:14:05.931Z,58.86
2024-01-16T03:15:05.895Z,60.78
2024-01-16T03:16:05.914Z,58.75
2024-01-16T03:17:05.932Z,59.45
2024-01-16T03:18:05.974Z,59.86
2024-01-16T03:19:05.912Z,59.44
2024-01-16T03:20:05.920Z,59.88
2024-01-16T03:21:05.903Z,58.15
2024-01-16T03:22:05.909Z,58.88
2024-01-16T03:23:05.933Z,58.61
2024-01-16T03:24:05.915Z,60.35
2024-01-16T03:25:05.936Z,56.19
2024-01-16T03:26:05.968Z,57.27
2024-01-16T03:27:05.909Z,58.67
2024-01-16T03:28:05.922Z,55.72
2024-01-16T03:29:05.936Z,56.89
2024-01-16T03:30:05.983Z,56.70
2024-01-16T03:31:05.977Z,57.14
2024-01-16T03:32:05.926Z,56.24
2024-01-16T03:33:05.971Z,57.79
2024-01-16T03:34:05.999Z,54.55
2024-01-16T03:35:05.969Z,56.10
2024-01-16T03:36:05.925Z,56.97
2024-01-16T03:37:05.924Z,57.12
2024-01-16T03:38:05.954Z,54.52
2024-01-16T03:39:05.922Z,55.18
2024-01-16T03:40:05.933Z,55.54
2024-01-16T03:41:05.978Z,56.32
2024-01-16T03:42:05.937Z,55.23
2024-01-16T03:43:05.962Z,56.78
2024-01-16T03:44:05.941Z,55.07
2024-01-16T03:45:05.934Z,55.47
2024-01-16T03:46:05.930Z,54.14
2024-01-16T03:47:05.944Z,55.41
2024-01-16T03:48:06.376Z,54.01
2024-01-16T03:49:06.007Z,55.66
2024-01-16T03:50:05.970Z,53.82
2024-01-16T03:51:05.948Z,54.81
2024-01-16T03:52:05.957Z,53.79
2024-01-16T03:53:06.042Z,53.38
2024-01-16T03:54:05.993Z,54.23
2024-01-16T03:55:05.943Z,52.83
2024-01-16T03:56:05.973Z,53.04
2024-01-16T03:57:05.948Z,53.16
2024-01-16T03:58:05.971Z,54.29
2024-01-16T03:59:05.983Z,52.92
2024-01-16T04:00:05.989Z,51.74
2024-01-16T04:01:05.983Z,51.18
2024-01-16T04:02:06.058Z,52.36
2024-01-16T04:03:05.977Z,50.84
2024-01-16T04:04:06.000Z,52.59
2024-01-16T04:05:06.038Z,52.72
2024-01-16T04:06:06.115Z,51.83
2024-01-16T04:07:06.014Z,53.33
2024-01-16T04:08:06.004Z,53.05
2024-01-16T04:09:05.957Z,52.26
2024-01-16T04:10:05.969Z,52.02
2024-01-16T04:11:06.001Z,51.75
2024-01-16T04:12:05.977Z,52.27
2024-01-16T04:13:05.970Z,52.08
2024-01-16T04:14:06.037Z,52.57
2024-01-16T04:15:05.985Z,50.99
2024-01-16T04:16:05.974Z,54.23
2024-01-16T04:17:06.039Z,52.68
2024-01-16T04:18:06.077Z,53.08
2024-01-16T04:19:06.117Z,53.27
2024-01-16T04:20:06.158Z,51.27
2024-01-16T04:21:06.156Z,52.82
2024-01-16T04:22:06.253Z,53.51
2024-01-16T04:23:06.225Z,52.90
2024-01-16T04:24:06.228Z,51.73
2024-01-16T04:25:06.243Z,53.20
2024-01-16T04:26:06.361Z,51.83
2024-01-16T04:27:06.407Z,51.91
2024-01-16T04:28:06.370Z,51.01
2024-01-16T04:29:06.514Z,51.15
2024-01-16T04:30:06.503Z,52.94
2024-01-16T04:31:06.531Z,52.27
2024-01-16T04:32:06.684Z,50.20
2024-01-16T04:33:06.702Z,51.77
2024-01-16T04:34:06.713Z,53.68
2024-01-16T04:35:06.743Z,51.28
2024-01-16T04:36:06.702Z,54.54
2024-01-16T04:37:06.766Z,53.80
2024-01-16T04:38:06.820Z,51.25
2024-01-16T04:39:06.835Z,53.10
2024-01-16T04:40:06.882Z,55.51
2024-01-16T04:41:06.943Z,52.81
2024-01-16T04:42:06.964Z,53.54
2024-01-16T04:43:07.022Z,53.65
2024-01-16T04:44:07.065Z,53.25
2024-01-16T04:45:07.104Z,55.22
2024-01-16T04:46:07.146Z,54.11
2024-01-16T04:47:07.218Z,51.88
2024-01-16T04:48:07.401Z,54.71
2024-01-16T04:49:07.295Z,55.64
2024-01-16T04:50:14.629Z,50.00
2024-01-16T04:51:14.581Z,50.00
2024-01-16T04:52:14.591Z,50.00
2024-01-16T04:53:14.613Z,50.00
2024-01-16T04:54:14.580Z,50.00
2024-01-16T04:55:14.605Z,51.98
2024-01-16T04:56:14.656Z,51.85
2024-01-16T04:57:14.595Z,51.64
2024-01-16T04:58:14.592Z,51.14
2024-01-16T04:59:16.839Z,51.90
2024-01-16T05:00:14.665Z,51.67
2024-01-16T05:01:14.714Z,51.61
2024-01-16T05:02:14.754Z,52.41
2024-01-16T05:03:14.854Z,50.54
2024-01-16T05:04:14.894Z,50.00
2024-01-16T05:05:14.947Z,53.42
2024-01-16T05:06:14.955Z,51.78
2024-01-16T05:07:14.950Z,51.78
2024-01-16T05:08:15.096Z,52.76
2024-01-16T05:09:15.044Z,52.87
2024-01-16T05:10:15.097Z,51.73
2024-01-16T05:11:15.169Z,51.36
2024-01-16T05:12:15.180Z,51.54
2024-01-16T05:13:15.222Z,52.96
2024-01-16T05:14:15.298Z,50.00
2024-01-16T05:15:15.333Z,51.94
2024-01-16T05:16:15.392Z,51.75
2024-01-16T05:17:15.435Z,51.74
2024-01-16T05:18:15.546Z,52.38
2024-01-16T05:19:15.553Z,53.35
2024-01-16T05:20:15.595Z,52.39
2024-01-16T05:21:15.618Z,51.31
2024-01-16T05:22:15.666Z,50.00
2024-01-16T05:23:15.776Z,50.00
2024-01-16T05:24:17.001Z,52.97
2024-01-16T05:25:15.781Z,54.06
2024-01-16T05:26:15.816Z,51.98
2024-01-16T05:27:15.837Z,50.24
2024-01-16T05:28:15.864Z,52.83
2024-01-16T05:29:15.958Z,51.24
2024-01-16T05:30:16.033Z,52.80
2024-01-16T05:31:15.987Z,52.86
2024-01-16T05:32:16.046Z,53.15
2024-01-16T05:33:16.231Z,52.91
2024-01-16T05:34:16.171Z,52.32
2024-01-16T05:35:16.216Z,53.24
2024-01-16T05:36:16.182Z,53.73
2024-01-16T05:37:16.205Z,53.61
2024-01-16T05:38:16.338Z,52.31
2024-01-16T05:39:16.293Z,53.95
2024-01-16T05:40:16.364Z,50.98
2024-01-16T05:41:16.452Z,53.03
2024-01-16T05:42:16.486Z,53.79
2024-01-16T05:43:16.524Z,52.08
2024-01-16T05:44:16.618Z,52.23
2024-01-16T05:45:16.608Z,51.39
2024-01-16T05:46:16.683Z,51.12
2024-01-16T05:47:16.736Z,52.85
2024-01-16T05:48:16.911Z,52.21
2024-01-16T05:49:16.849Z,52.66
2024-01-16T05:50:16.957Z,50.00
2024-01-16T05:51:16.977Z,53.90
2024-01-16T05:52:16.987Z,50.76
2024-01-16T05:53:17.050Z,53.27
2024-01-16T05:54:17.132Z,52.18
2024-01-16T05:55:17.156Z,51.87
2024-01-16T05:56:17.235Z,52.39
2024-01-16T05:57:17.254Z,53.25
2024-01-16T05:58:17.294Z,52.30
2024-01-16T05:59:17.370Z,51.15
2024-01-16T06:00:17.416Z,52.67
2024-01-16T06:01:17.480Z,51.10
2024-01-16T06:02:17.574Z,52.26
2024-01-16T06:03:17.583Z,51.09
2024-01-16T06:04:17.655Z,52.58
2024-01-16T06:05:17.686Z,51.82
2024-01-16T06:06:17.875Z,52.92
2024-01-16T06:07:17.691Z,53.93
2024-01-16T06:08:17.821Z,54.25
2024-01-16T06:09:17.823Z,53.09
2024-01-16T06:10:17.857Z,55.73
2024-01-16T06:11:17.916Z,53.81
2024-01-16T06:12:17.945Z,52.59
2024-01-16T06:13:17.982Z,56.05
2024-01-16T06:14:19.997Z,53.46
2024-01-16T06:15:18.039Z,54.58
2024-01-16T06:16:18.035Z,52.82
2024-01-16T06:17:18.109Z,53.96
2024-01-16T06:18:18.133Z,53.45
2024-01-16T06:19:18.122Z,53.73
2024-01-16T06:20:18.105Z,53.75
2024-01-16T06:21:18.670Z,53.02
2024-01-16T06:22:18.050Z,53.85
2024-01-16T06:23:18.061Z,54.86
2024-01-16T06:24:18.047Z,53.29
2024-01-16T06:25:18.055Z,54.26
2024-01-16T06:26:18.120Z,53.63
2024-01-16T06:27:18.059Z,53.35
2024-01-16T06:28:18.057Z,53.60
2024-01-16T06:29:24.942Z,52.43
2024-01-16T06:30:19.237Z,52.49
2024-01-16T06:31:18.111Z,52.56
2024-01-16T06:32:18.174Z,53.26
2024-01-16T06:33:18.234Z,53.03
2024-01-16T06:34:18.188Z,52.27
2024-01-16T06:35:18.124Z,54.78
2024-01-16T06:36:18.098Z,54.49
2024-01-16T06:37:18.121Z,52.59
2024-01-16T06:38:18.125Z,53.26
2024-01-16T06:39:18.141Z,53.64
2024-01-16T06:40:18.133Z,53.81
2024-01-16T06:41:18.226Z,53.69
2024-01-16T06:42:18.245Z,54.45
2024-01-16T06:43:18.347Z,52.33
2024-01-16T06:44:18.387Z,53.64
2024-01-16T06:45:18.415Z,54.51
2024-01-16T06:46:18.479Z,53.14
2024-01-16T06:47:18.557Z,54.48
2024-01-16T06:48:18.765Z,52.75
2024-01-16T06:49:18.680Z,53.55
2024-01-16T06:50:18.652Z,52.35
2024-01-16T06:51:18.657Z,54.21
2024-01-16T06:52:18.708Z,54.37
2024-01-16T06:53:18.764Z,53.57
2024-01-16T06:54:18.837Z,53.44
2024-01-16T06:55:18.896Z,54.29
2024-01-16T06:56:18.925Z,53.17
2024-01-16T06:57:19.034Z,52.83
2024-01-16T06:58:19.044Z,52.76
2024-01-16T06:59:19.113Z,54.71
2024-01-16T07:00:19.149Z,52.28
2024-01-16T07:01:19.272Z,54.56
2024-01-16T07:02:19.313Z,52.01
2024-01-16T07:03:19.346Z,51.71
2024-01-16T07:04:19.484Z,53.56
2024-01-16T07:05:19.511Z,53.12
2024-01-16T07:06:19.598Z,54.38
2024-01-16T07:07:19.596Z,53.36
2024-01-16T07:08:19.627Z,53.34
2024-01-16T07:09:19.660Z,52.63
2024-01-16T07:10:19.926Z,53.21
2024-01-16T07:11:20.224Z,52.21
2024-01-16T07:12:19.866Z,53.83
2024-01-16T07:13:19.933Z,51.31
2024-01-16T07:14:20.086Z,51.01
2024-01-16T07:15:20.063Z,52.47
2024-01-16T07:16:20.118Z,51.32
2024-01-16T07:17:20.154Z,51.67
2024-01-16T07:18:20.287Z,52.30
2024-01-16T07:19:20.216Z,52.09
2024-01-16T07:20:20.308Z,51.99
2024-01-16T07:21:20.324Z,53.72
2024-01-16T07:22:20.356Z,54.10
2024-01-16T07:23:20.416Z,54.96
2024-01-16T07:24:20.480Z,53.20
2024-01-16T07:25:20.520Z,54.26
2024-01-16T07:26:20.615Z,52.23
2024-01-16T07:27:20.616Z,54.54
2024-01-16T07:28:20.679Z,54.36
2024-01-16T07:29:20.768Z,53.71
2024-01-16T07:30:20.846Z,52.78
2024-01-16T07:31:20.864Z,52.44
2024-01-16T07:32:20.934Z,53.80
2024-01-16T07:33:21.099Z,52.78
2024-01-16T07:34:21.227Z,52.59
2024-01-16T07:35:21.151Z,51.92
2024-01-16T07:36:21.148Z,52.85
2024-01-16T07:37:21.200Z,53.27
2024-01-16T07:38:21.347Z,51.85
2024-01-16T07:39:21.333Z,53.27
2024-01-16T07:40:21.389Z,52.51
2024-01-16T07:41:21.461Z,51.57
2024-01-16T07:42:21.522Z,51.46
2024-01-16T07:43:21.579Z,52.46
2024-01-16T07:44:21.647Z,52.58
2024-01-16T07:45:21.680Z,53.71
2024-01-16T07:46:21.737Z,51.56
2024-01-16T07:47:21.806Z,53.33
2024-01-16T07:48:21.975Z,51.54
2024-01-16T07:49:21.956Z,51.69
2024-01-16T07:50:22.012Z,53.55
2024-01-16T07:51:22.005Z,52.65
2024-01-16T07:52:22.044Z,53.77
2024-01-16T07:53:22.105Z,53.51
2024-01-16T07:54:22.139Z,54.67
2024-01-16T07:55:25.148Z,50.97
2024-01-16T07:56:22.294Z,52.56
2024-01-16T07:57:22.189Z,53.38
2024-01-16T07:58:22.205Z,53.31
2024-01-16T07:59:22.425Z,52.71
2024-01-16T08:00:22.345Z,51.94
2024-01-16T08:01:22.420Z,50.77
2024-01-16T08:02:24.822Z,50.82
2024-01-16T08:03:22.322Z,50.88
2024-01-16T08:04:22.261Z,51.01
2024-01-16T08:05:22.328Z,52.27
2024-01-16T08:06:22.308Z,52.13
2024-01-16T08:07:22.209Z,54.03
2024-01-16T08:08:22.244Z,55.14
2024-01-16T08:09:22.274Z,56.10
2024-01-16T08:10:22.245Z,55.33
2024-01-16T08:11:22.242Z,56.99
2024-01-16T08:12:22.250Z,55.47
2024-01-16T08:13:22.228Z,57.12
2024-01-16T08:14:22.245Z,57.10
2024-01-16T08:15:22.243Z,55.74
2024-01-16T08:16:22.249Z,55.94
2024-01-16T08:17:22.270Z,55.14
2024-01-16T08:18:22.406Z,58.34
2024-01-16T08:19:22.352Z,57.11
2024-01-16T08:20:22.296Z,56.72
2024-01-16T08:21:22.273Z,56.77
2024-01-16T08:22:22.267Z,56.41
2024-01-16T08:23:22.397Z,60.25
2024-01-16T08:24:22.269Z,55.63
2024-01-16T08:25:22.271Z,56.40
2024-01-16T08:26:22.284Z,57.82
2024-01-16T08:27:22.261Z,57.36
2024-01-16T08:28:23.802Z,57.88
2024-01-16T08:29:22.255Z,58.28
2024-01-16T08:30:22.357Z,59.24
2024-01-16T08:31:22.287Z,59.70
2024-01-16T08:32:22.365Z,59.42
2024-01-16T08:33:30.954Z,58.96
2024-01-16T08:34:23.466Z,59.00
2024-01-16T08:35:22.535Z,59.12
2024-01-16T08:36:22.320Z,58.96
2024-01-16T08:37:22.276Z,60.32
2024-01-16T08:38:22.318Z,59.76
2024-01-16T08:39:22.279Z,60.56
2024-01-16T08:40:22.286Z,58.83
2024-01-16T08:41:22.298Z,60.83
2024-01-16T08:42:22.297Z,58.10
2024-01-16T08:43:22.331Z,60.78
2024-01-16T08:44:22.390Z,60.08
2024-01-16T08:45:22.393Z,62.13
2024-01-16T08:46:22.290Z,58.71
2024-01-16T08:47:22.355Z,60.60
2024-01-16T08:48:22.530Z,60.18
2024-01-16T08:49:22.351Z,62.47
2024-01-16T08:50:22.350Z,65.27
2024-01-16T08:51:22.311Z,68.57
2024-01-16T08:52:22.410Z,71.14
2024-01-16T08:53:22.459Z,70.18
2024-01-16T08:54:22.460Z,72.63
2024-01-16T08:55:22.512Z,75.51
2024-01-16T08:56:22.675Z,77.32
2024-01-16T08:57:24.777Z,79.16
2024-01-16T08:58:22.593Z,81.19
2024-01-16T08:59:22.636Z,87.07
2024-01-16T09:00:22.594Z,87.74
2024-01-16T09:01:22.640Z,92.60
2024-01-16T09:02:22.638Z,96.87
2024-01-16T09:03:22.606Z,98.40
2024-01-16T09:04:22.750Z,100.63
2024-01-16T09:05:22.641Z,103.06
2024-01-16T09:06:22.732Z,106.78
2024-01-16T09:07:22.788Z,107.23
2024-01-16T09:08:22.622Z,109.89
2024-01-16T09:09:22.606Z,112.48
2024-01-16T09:10:22.623Z,113.68
2024-01-16T09:11:22.639Z,116.27
2024-01-16T09:12:22.608Z,118.09
2024-01-16T09:13:22.606Z,119.50
2024-01-16T09:14:22.656Z,119.71
2024-01-16T09:15:22.610Z,123.46
2024-01-16T09:16:22.615Z,126.30
2024-01-16T09:17:22.617Z,126.52
2024-01-16T09:18:22.870Z,129.00
2024-01-16T09:19:22.845Z,130.77
2024-01-16T09:20:22.653Z,132.86
2024-01-16T09:21:22.633Z,131.89
2024-01-16T09:22:22.624Z,133.33
2024-01-16T09:23:22.637Z,134.80
2024-01-16T09:24:22.647Z,136.77
2024-01-16T09:25:22.607Z,137.89
2024-01-16T09:26:22.672Z,135.55
2024-01-16T09:27:22.626Z,138.36
2024-01-16T09:28:22.643Z,141.91
2024-01-16T09:29:22.648Z,140.24
2024-01-16T09:30:22.627Z,143.09
2024-01-16T09:31:22.654Z,143.56
2024-01-16T09:32:22.697Z,144.66
2024-01-16T09:33:22.743Z,145.11
2024-01-16T09:34:22.678Z,144.39
2024-01-16T09:35:22.637Z,146.62
2024-01-16T09:36:22.651Z,147.31
2024-01-16T09:37:22.620Z,148.32
2024-01-16T09:38:23.657Z,147.44
2024-01-16T09:39:22.635Z,146.47
2024-01-16T09:40:22.650Z,149.04
2024-01-16T09:41:22.690Z,149.85
2024-01-16T09:42:22.645Z,150.96
2024-01-16T09:43:22.698Z,150.56
2024-01-16T09:44:22.754Z,152.78
2024-01-16T09:45:22.831Z,152.90
2024-01-16T09:46:22.891Z,154.53
2024-01-16T09:47:22.971Z,155.68
2024-01-16T09:48:23.050Z,156.36
2024-01-16T09:49:23.116Z,156.33
2024-01-16T09:50:23.147Z,157.38
2024-01-16T09:51:23.168Z,158.20
2024-01-16T09:52:23.214Z,157.62
2024-01-16T09:53:23.294Z,158.68
2024-01-16T09:54:23.275Z,159.75
2024-01-16T09:55:23.305Z,159.59
2024-01-16T09:56:23.401Z,162.22
2024-01-16T09:57:23.423Z,163.12
2024-01-16T09:58:25.931Z,162.37
2024-01-16T09:59:23.542Z,162.82
2024-01-16T10:00:23.449Z,163.68
2024-01-16T10:01:23.466Z,163.68
2024-01-16T10:02:23.512Z,165.36
2024-01-16T10:03:23.460Z,166.14
2024-01-16T10:04:23.502Z,168.07
2024-01-16T10:05:23.547Z,168.23
2024-01-16T10:06:23.538Z,168.93
2024-01-16T10:07:23.682Z,169.51
2024-01-16T10:08:23.529Z,170.40
2024-01-16T10:09:23.466Z,169.68
2024-01-16T10:10:30.545Z,168.47
2024-01-16T10:11:24.505Z,168.56
2024-01-16T10:12:23.519Z,169.04
2024-01-16T10:13:23.507Z,169.74
2024-01-16T10:14:23.550Z,170.86
2024-01-16T10:15:23.544Z,173.58
2024-01-16T10:16:26.010Z,172.28
2024-01-16T10:17:23.542Z,173.93
2024-01-16T10:18:23.722Z,172.47
2024-01-16T10:19:32.035Z,172.73
2024-01-16T10:20:24.528Z,172.85
2024-01-16T10:21:23.653Z,173.30
2024-01-16T10:22:25.719Z,174.05
2024-01-16T10:23:23.503Z,175.10
2024-01-16T10:24:23.498Z,176.93
2024-01-16T10:25:23.517Z,180.20
2024-01-16T10:26:23.566Z,179.05
2024-01-16T10:27:23.503Z,179.93
2024-01-16T10:28:25.672Z,180.56
2024-01-16T10:29:25.736Z,180.66
2024-01-16T10:30:24.740Z,180.65
2024-01-16T10:31:23.638Z,180.65
2024-01-16T10:32:23.593Z,179.53
2024-01-16T10:33:23.584Z,178.33
2024-01-16T10:34:23.863Z,179.84
2024-01-16T10:35:23.649Z,180.11
2024-01-16T10:36:23.524Z,180.69
2024-01-16T10:37:23.523Z,181.36
2024-01-16T10:38:23.732Z,181.30
2024-01-16T10:39:27.438Z,182.08
2024-01-16T10:40:26.671Z,182.18
2024-01-16T10:41:23.576Z,182.23
2024-01-16T10:42:23.535Z,182.93
2024-01-16T10:43:23.540Z,184.12
2024-01-16T10:44:23.550Z,185.21
2024-01-16T10:45:23.561Z,188.48
2024-01-16T10:46:24.629Z,188.69
2024-01-16T10:47:23.614Z,190.97
2024-01-16T10:48:23.645Z,191.33
2024-01-16T10:49:25.085Z,189.98
2024-01-16T10:50:23.577Z,190.09
2024-01-16T10:51:23.587Z,190.10
2024-01-16T10:52:24.328Z,189.31
2024-01-16T10:53:23.645Z,189.62
2024-01-16T10:54:23.602Z,188.67
2024-01-16T10:55:23.627Z,188.97
2024-01-16T10:56:23.676Z,190.18
2024-01-16T10:57:23.719Z,190.53
2024-01-16T10:58:23.726Z,190.07
2024-01-16T10:59:23.823Z,191.92
2024-01-16T11:00:23.765Z,191.30
2024-01-16T11:01:23.801Z,195.89
2024-01-16T11:02:23.886Z,196.63
2024-01-16T11:03:24.883Z,196.73
2024-01-16T11:04:23.944Z,197.12
2024-01-16T11:05:26.476Z,197.65
2024-01-16T11:06:23.881Z,199.94
2024-01-16T11:07:23.863Z,199.64
2024-01-16T11:08:23.928Z,199.26
2024-01-16T11:09:23.884Z,198.72
2024-01-16T11:10:23.863Z,198.95
2024-01-16T11:11:24.042Z,199.04
2024-01-16T11:12:23.851Z,198.84
2024-01-16T11:13:23.854Z,197.70
2024-01-16T11:14:24.630Z,199.96
2024-01-16T11:15:23.865Z,198.61
2024-01-16T11:16:23.873Z,198.32
2024-01-16T11:17:23.933Z,199.81
2024-01-16T11:18:24.082Z,198.03
2024-01-16T11:19:38.224Z,198.36
2024-01-16T11:20:38.786Z,198.49
2024-01-16T11:21:25.015Z,198.56
2024-01-16T11:22:24.019Z,199.34
2024-01-16T11:23:23.955Z,200.69
2024-01-16T11:24:23.880Z,203.17
2024-01-16T11:25:23.905Z,207.90
2024-01-16T11:26:24.858Z,199.98
2024-01-16T11:27:23.927Z,197.83
2024-01-16T11:28:23.935Z,197.84
2024-01-16T11:29:23.919Z,197.69
2024-01-16T11:30:23.981Z,197.82
2024-01-16T11:31:23.912Z,197.64
2024-01-16T11:32:30.147Z,198.20
2024-01-16T11:33:25.082Z,198.26
2024-01-16T11:34:24.082Z,198.85
2024-01-16T11:35:24.012Z,199.84
2024-01-16T11:36:23.946Z,201.27
2024-01-16T11:37:23.950Z,203.48
2024-01-16T11:38:23.941Z,199.53
2024-01-16T11:39:23.940Z,199.04
2024-01-16T11:40:23.947Z,199.82
2024-01-16T11:41:32.958Z,198.15
2024-01-16T11:42:25.051Z,198.26
2024-01-16T11:43:24.054Z,198.74
2024-01-16T11:44:24.753Z,199.41
2024-01-16T11:45:24.000Z,201.25
2024-01-16T11:46:24.050Z,203.27
2024-01-16T11:47:24.244Z,200.76
2024-01-16T11:48:24.259Z,198.05
2024-01-16T11:49:24.140Z,198.71
2024-01-16T11:50:24.334Z,197.18
2024-01-16T11:51:24.163Z,198.80
2024-01-16T11:52:24.132Z,198.21
2024-01-16T11:53:24.197Z,198.37
2024-01-16T11:54:24.183Z,197.48
2024-01-16T11:55:24.208Z,197.61
2024-01-16T11:56:34.271Z,197.14
2024-01-16T11:57:25.303Z,197.20
2024-01-16T11:58:24.228Z,197.18
2024-01-16T11:59:24.249Z,196.51
2024-01-16T12:00:24.238Z,195.04
2024-01-16T12:01:24.326Z,195.58
2024-01-16T12:02:24.256Z,194.94
2024-01-16T12:03:31.811Z,193.77
2024-01-16T12:04:25.240Z,193.85
2024-01-16T12:05:24.393Z,193.97
2024-01-16T12:06:24.343Z,194.03
2024-01-16T12:07:24.425Z,193.84
2024-01-16T12:08:24.265Z,192.53
2024-01-16T12:09:24.276Z,192.45
2024-01-16T12:10:24.289Z,192.11
2024-01-16T12:11:30.274Z,191.59
2024-01-16T12:12:25.324Z,191.65
2024-01-16T12:13:24.264Z,191.68
2024-01-16T12:14:24.307Z,191.44
2024-01-16T12:15:24.283Z,190.39
2024-01-16T12:16:24.262Z,189.96
2024-01-16T12:17:24.386Z,188.62
2024-01-16T12:18:33.925Z,189.04
2024-01-16T12:19:25.393Z,189.08
2024-01-16T12:20:24.526Z,188.57
2024-01-16T12:21:24.303Z,188.44
2024-01-16T12:22:24.292Z,187.67
2024-01-16T12:23:24.365Z,186.89
2024-01-16T12:24:24.312Z,186.59
2024-01-16T12:25:24.307Z,186.48
2024-01-16T12:26:24.727Z,185.61
2024-01-16T12:27:24.295Z,184.94
2024-01-16T12:28:31.727Z,184.99
2024-01-16T12:29:25.334Z,185.04
2024-01-16T12:30:24.339Z,184.50
2024-01-16T12:31:24.368Z,184.29
2024-01-16T12:32:24.393Z,183.73
2024-01-16T12:33:24.439Z,183.08
2024-01-16T12:34:24.454Z,183.39
2024-01-16T12:35:24.418Z,182.11
2024-01-16T12:36:24.859Z,182.28
2024-01-16T12:37:24.336Z,182.37
2024-01-16T12:38:24.355Z,181.48
2024-01-16T12:39:24.370Z,181.73
2024-01-16T12:40:24.436Z,181.42
2024-01-16T12:41:32.404Z,180.57
2024-01-16T12:42:25.902Z,180.61
2024-01-16T12:43:24.529Z,180.68
2024-01-16T12:44:24.552Z,179.87
2024-01-16T12:45:24.609Z,180.07